Time;durP1;ratioP1;P1;durP2;ratioP2;P2;SDS_P1;SDS_P2;PMS_P1;PMS_P2;Temp;Humidity;BMP_temperature;BMP_pressure;BME280_temperature;BME280_humidity;BME280_pressure;Samples;Min_cycle;Max_cycle;Signal;HPM_P1;HPM_P2
2024/02/28 00:06:06;;;;;;;1.77;1.35;;;;;;;5.49;81.43;101378.66;15826663;28;20036;-48
2024/02/28 00:13:41;;;;;;;0.47;0.30;;;;;;;5.01;82.44;101372.16;15840346;28;20114;-50
2024/02/28 00:21:16;;;;;;;2.75;0.45;;;;;;;5.06;82.06;101377.00;15881290;28;20083;-48
2024/02/28 00:28:52;;;;;;;0.35;0.35;;;;;;;5.01;83.32;101377.47;15874380;28;20082;-49
2024/02/28 00:36:27;;;;;;;0.25;0.25;;;;;;;4.83;83.22;101382.84;15843267;28;20508;-49
2024/02/28 00:44:01;;;;;;;5.88;2.22;;;;;;;5.07;82.80;101381.31;15806641;28;20055;-50
2024/02/28 00:51:37;;;;;;;1.73;1.63;;;;;;;5.14;81.96;101386.84;15867447;28;20142;-51
2024/02/28 00:59:15;;;;;;;0.00;0.00;;;;;;;5.00;81.58;101391.78;15836773;28;20101;-48
2024/02/28 01:06:50;;;;;;;0.20;0.20;;;;;;;4.71;83.86;101388.56;15851500;28;20067;-47
2024/02/28 01:14:24;;;;;;;0.17;0.17;;;;;;;5.03;82.48;101388.78;15796866;28;20047;-52
2024/02/28 01:21:59;;;;;;;0.10;0.10;;;;;;;4.98;82.99;101382.25;15741370;28;20066;-50
2024/02/28 01:29:32;;;;;;;0.00;0.00;;;;;;;5.03;82.09;101393.25;15723470;28;20040;-51
2024/02/28 01:37:07;;;;;;;0.03;0.03;;;;;;;5.29;80.85;101386.09;15745853;28;20405;-51
2024/02/28 01:44:46;;;;;;;0.30;0.30;;;;;;;5.23;80.87;101386.75;15723795;28;20036;-50
2024/02/28 01:52:22;;;;;;;0.03;0.03;;;;;;;5.32;80.83;101384.94;15801934;28;20131;-51
2024/02/28 01:59:57;;;;;;;0.00;0.00;;;;;;;5.52;79.40;101378.34;15802229;28;20127;-52
2024/02/28 02:07:38;;;;;;;0.00;0.00;;;;;;;5.14;80.73;101379.72;15802278;28;20408;-51
2024/02/28 02:15:15;;;;;;;0.00;0.00;;;;;;;5.44;79.23;101382.81;15845646;28;20050;-47
2024/02/28 02:22:51;;;;;;;0.57;0.57;;;;;;;5.41;79.33;101391.97;15865896;28;20054;-48
2024/02/28 02:30:26;;;;;;;1.42;0.68;;;;;;;5.31;79.72;101404.53;15866291;28;20044;-51
2024/02/28 02:38:01;;;;;;;0.15;0.15;;;;;;;5.38;79.49;101411.75;15822777;28;20048;-52
2024/02/28 02:45:37;;;;;;;0.20;0.20;;;;;;;5.18;80.15;101420.97;15809879;28;20066;-52
2024/02/28 02:53:12;;;;;;;0.10;0.10;;;;;;;5.19;81.04;101424.47;15864684;28;20088;-51
2024/02/28 03:00:46;;;;;;;2.55;1.98;;;;;;;5.03;81.45;101423.38;15842998;28;20051;-49
2024/02/28 03:08:21;;;;;;;0.13;0.13;;;;;;;5.32;80.32;101424.88;15816866;28;20112;-51
2024/02/28 03:15:55;;;;;;;0.00;0.00;;;;;;;5.09;80.79;101421.94;15860997;28;20051;-50
2024/02/28 03:23:30;;;;;;;0.00;0.00;;;;;;;4.44;83.23;101430.28;15826779;28;20135;-49
2024/02/28 03:31:05;;;;;;;2.78;0.32;;;;;;;4.78;82.00;101424.22;15861205;28;20508;-52
2024/02/28 03:38:40;;;;;;;0.17;0.17;;;;;;;4.82;82.10;101426.41;15835470;28;20043;-50
2024/02/28 03:46:24;;;;;;;0.20;0.20;;;;;;;4.91;81.85;101426.47;15846589;28;20556;-47
2024/02/28 03:54:00;;;;;;;1.15;1.15;;;;;;;5.14;81.77;101435.59;15860450;28;20539;-47
2024/02/28 04:01:36;;;;;;;0.00;0.00;;;;;;;5.19;80.73;101429.78;15816002;28;20036;-49
2024/02/28 04:09:12;;;;;;;0.22;0.22;;;;;;;4.83;81.62;101444.03;15819974;28;20040;-48
2024/02/28 04:16:47;;;;;;;0.38;0.38;;;;;;;4.65;81.58;101437.91;15879584;22;20039;-48
2024/02/28 04:24:22;;;;;;;0.57;0.57;;;;;;;4.78;81.60;101450.81;15827386;28;20123;-45
2024/02/28 04:31:58;;;;;;;0.00;0.00;;;;;;;4.50;83.26;101453.56;15802614;28;20381;-46
2024/02/28 04:39:33;;;;;;;0.47;0.45;;;;;;;4.77;81.43;101459.78;15808069;28;20040;-46
2024/02/28 04:47:07;;;;;;;0.00;0.00;;;;;;;4.39;82.17;101480.41;15823630;28;20130;-46
2024/02/28 04:54:42;;;;;;;0.20;0.20;;;;;;;4.74;80.99;101481.34;15863524;28;20046;-52
2024/02/28 05:02:16;;;;;;;0.38;0.38;;;;;;;4.45;81.40;101486.91;15861524;28;20039;-46
2024/02/28 05:09:51;;;;;;;0.00;0.00;;;;;;;4.42;81.02;101497.84;15861269;28;20131;-43
2024/02/28 05:17:25;;;;;;;0.10;0.10;;;;;;;4.05;83.29;101507.59;15862259;28;20079;-48
2024/02/28 05:25:00;;;;;;;0.00;0.00;;;;;;;4.41;80.33;101512.97;15861268;28;20568;-51
2024/02/28 05:32:36;;;;;;;0.32;0.32;;;;;;;4.41;80.41;101520.94;15862796;28;20036;-45
2024/02/28 05:40:13;;;;;;;0.22;0.22;;;;;;;4.30;80.35;101522.00;15801454;28;20176;-50
2024/02/28 05:47:46;;;;;;;0.17;0.17;;;;;;;4.52;78.40;101525.19;15826455;28;20048;-47
2024/02/28 05:55:28;;;;;;;0.00;0.00;;;;;;;4.42;77.99;101535.06;15860550;28;20269;-53
2024/02/28 06:03:02;;;;;;;0.00;0.00;;;;;;;4.21;78.78;101549.47;15860377;28;20052;-46
2024/02/28 06:10:38;;;;;;;0.00;0.00;;;;;;;4.04;79.71;101571.50;15873005;27;20039;-48
2024/02/28 06:18:11;;;;;;;0.00;0.00;;;;;;;3.89;80.49;101554.38;15987847;27;20070;-53
2024/02/28 06:25:46;;;;;;;0.55;0.55;;;;;;;4.06;81.12;101583.66;15919697;27;20130;-47
2024/02/28 06:33:20;;;;;;;0.10;0.10;;;;;;;4.31;80.45;101584.78;15927779;27;20062;-46
2024/02/28 06:40:55;;;;;;;0.00;0.00;;;;;;;4.30;79.18;101591.09;15902258;27;20417;-48
2024/02/28 06:48:29;;;;;;;0.22;0.22;;;;;;;3.76;81.55;101594.53;15936929;27;20074;-45
2024/02/28 06:56:08;;;;;;;0.40;0.40;;;;;;;4.60;78.93;101602.38;15967790;27;20046;-47
2024/02/28 07:03:48;;;;;;;0.00;0.00;;;;;;;4.04;81.67;101617.50;15928662;27;20095;-48
2024/02/28 07:11:23;;;;;;;0.00;0.00;;;;;;;3.51;83.58;101623.38;15928398;27;20095;-46
2024/02/28 07:18:57;;;;;;;0.00;0.00;;;;;;;3.74;83.51;101623.06;15983980;27;20046;-48
2024/02/28 07:26:33;;;;;;;0.10;0.10;;;;;;;3.32;82.46;101624.25;15983151;27;20095;-49
2024/02/28 07:34:07;;;;;;;0.73;0.60;;;;;;;3.39;84.07;101616.56;15975056;27;20069;-49
2024/02/28 07:41:42;;;;;;;0.10;0.10;;;;;;;3.45;83.41;101609.84;15931026;27;20109;-46
2024/02/28 07:49:18;;;;;;;0.17;0.17;;;;;;;3.82;81.36;101633.78;15972732;27;20042;-47
2024/02/28 07:56:56;;;;;;;0.00;0.00;;;;;;;4.55;78.95;101650.69;15995837;27;20051;-44
2024/02/28 08:04:31;;;;;;;0.47;0.32;;;;;;;4.29;79.43;101657.66;15966775;27;20035;-50
2024/02/28 08:12:12;;;;;;;0.10;0.10;;;;;;;3.49;80.97;101665.13;15904676;27;20047;-52
2024/02/28 08:19:45;;;;;;;1.60;0.93;;;;;;;3.58;81.03;101668.78;15799176;28;20130;-46
2024/02/28 08:27:23;;;;;;;1.17;1.13;;;;;;;3.76;79.85;101674.19;15798705;28;20399;-48
2024/02/28 08:34:57;;;;;;;0.22;0.22;;;;;;;3.72;80.53;101688.72;15798383;28;20036;-47
2024/02/28 08:42:33;;;;;;;0.00;0.00;;;;;;;3.85;80.11;101686.63;15797879;28;20552;-49
2024/02/28 08:50:08;;;;;;;1.00;0.57;;;;;;;3.52;79.71;101701.19;15834933;28;20028;-51
2024/02/28 08:57:43;;;;;;;0.57;0.57;;;;;;;4.15;77.53;101687.38;15859513;28;20120;-50
2024/02/28 09:05:18;;;;;;;1.30;1.02;;;;;;;4.01;77.40;101670.94;15860687;28;20476;-47
2024/02/28 09:12:53;;;;;;;0.30;0.30;;;;;;;3.78;76.34;101682.88;15910095;27;20049;-48
2024/02/28 09:20:27;;;;;;;0.65;0.63;;;;;;;4.08;76.90;101674.66;15986306;27;20214;-46
2024/02/28 09:28:03;;;;;;;0.50;0.50;;;;;;;4.27;75.24;101678.25;15986401;27;20050;-47
2024/02/28 09:35:38;;;;;;;0.00;0.00;;;;;;;4.22;75.33;101685.81;15984888;27;20039;-46
2024/02/28 09:43:20;;;;;;;0.05;0.05;;;;;;;4.54;74.07;101688.91;15984344;27;20121;-48
2024/02/28 09:50:55;;;;;;;0.32;0.32;;;;;;;4.50;73.14;101686.69;15928188;27;20133;-48
2024/02/28 09:58:31;;;;;;;0.82;0.15;;;;;;;4.83;73.46;101694.06;15919139;27;20048;-46
2024/02/28 10:06:05;;;;;;;0.90;0.47;;;;;;;4.00;74.47;101714.41;15943618;27;20141;-48
2024/02/28 10:13:41;;;;;;;0.65;0.65;;;;;;;4.50;73.41;101719.41;15931743;22;20051;-51
2024/02/28 10:21:16;;;;;;;0.65;0.25;;;;;;;4.77;71.32;101723.06;15863935;27;20223;-51
2024/02/28 10:28:52;;;;;;;0.85;0.85;;;;;;;3.92;73.51;101732.88;15802675;28;20377;-50
2024/02/28 10:36:26;;;;;;;1.90;0.77;;;;;;;4.75;70.88;101736.50;15802724;28;20040;-51
2024/02/28 10:44:02;;;;;;;0.00;0.00;;;;;;;4.54;71.29;101746.56;15813721;28;20123;-53
2024/02/28 10:51:37;;;;;;;0.30;0.30;;;;;;;4.37;69.99;101756.13;15843489;28;20042;-49
2024/02/28 10:59:13;;;;;;;0.10;0.10;;;;;;;4.34;70.74;101754.59;15843516;28;20089;-50
2024/02/28 11:06:51;;;;;;;0.43;0.43;;;;;;;4.35;70.00;101758.09;15796523;28;20143;-51
2024/02/28 11:14:26;;;;;;;0.00;0.00;;;;;;;4.31;71.08;101759.34;15872865;27;20042;-48
2024/02/28 11:22:05;;;;;;;0.68;0.68;;;;;;;4.34;71.08;101756.44;15903895;27;20050;-49
2024/02/28 11:29:40;;;;;;;0.70;0.52;;;;;;;4.43;69.65;101762.66;15922004;27;20054;-50
2024/02/28 11:37:18;;;;;;;0.10;0.10;;;;;;;4.45;70.63;101758.06;15922266;27;20058;-49
2024/02/28 11:45:00;;;;;;;0.20;0.20;;;;;;;4.44;70.03;101775.84;15907128;27;20077;-50
2024/02/28 11:52:35;;;;;;;0.00;0.00;;;;;;;4.58;70.14;101775.38;15984952;27;20043;-50
2024/02/28 12:00:17;;;;;;;0.00;0.00;;;;;;;4.71;67.66;101774.19;15986329;27;20046;-56
2024/02/28 12:07:53;;;;;;;2.72;1.10;;;;;;;4.74;66.83;101774.72;15986746;27;20051;-51
2024/02/28 12:15:29;;;;;;;0.30;0.30;;;;;;;4.94;66.45;101769.31;15966031;27;20098;-51
2024/02/28 12:23:03;;;;;;;0.65;0.65;;;;;;;4.76;67.26;101769.28;15987202;27;20035;-50
2024/02/28 12:30:42;;;;;;;0.00;0.00;;;;;;;4.90;67.43;101760.81;15997886;27;20035;-51
2024/02/28 12:38:17;;;;;;;0.10;0.10;;;;;;;4.72;67.88;101763.41;15998235;27;20053;-52
2024/02/28 12:45:52;;;;;;;0.20;0.20;;;;;;;5.82;65.56;101755.22;15985857;27;20512;-54
2024/02/28 12:53:28;;;;;;;0.03;0.03;;;;;;;5.27;65.11;101765.19;15929996;27;20059;-51
2024/02/28 13:01:04;;;;;;;0.57;0.57;;;;;;;5.35;65.65;101762.63;15912251;27;20051;-50
2024/02/28 13:08:51;;;;;;;0.85;0.85;;;;;;;5.45;65.11;101759.88;15912322;27;20411;-50
2024/02/28 13:16:26;;;;;;;0.10;0.10;;;;;;;6.46;63.07;101766.53;15984753;27;20083;-51
2024/02/28 13:24:02;;;;;;;4.15;0.38;;;;;;;5.55;63.75;101758.00;15963263;27;20134;-51
2024/02/28 13:31:38;;;;;;;0.45;0.30;;;;;;;6.66;60.13;101753.78;15993525;27;20066;-49
2024/02/28 13:39:12;;;;;;;0.55;0.55;;;;;;;7.26;60.58;101739.50;15991548;27;20426;-50
2024/02/28 13:46:47;;;;;;;0.40;0.40;;;;;;;7.87;57.60;101725.66;15973374;27;20035;-51
2024/02/28 13:54:20;;;;;;;2.63;0.47;;;;;;;7.49;58.50;101740.53;15926227;27;20442;-50
2024/02/28 14:01:55;;;;;;;0.70;0.32;;;;;;;6.82;59.34;101734.38;15926624;27;20112;-53
2024/02/28 14:09:30;;;;;;;2.13;0.70;;;;;;;6.18;58.75;101728.53;15961702;27;20043;-52
2024/02/28 14:17:06;;;;;;;0.22;0.22;;;;;;;6.48;58.91;101734.38;15970588;27;20495;-51
2024/02/28 14:24:41;;;;;;;1.05;1.02;;;;;;;6.93;57.37;101728.72;15989459;27;20042;-51
2024/02/28 14:32:17;;;;;;;0.10;0.10;;;;;;;7.30;55.59;101733.66;15988388;27;20053;-51
2024/02/28 14:39:51;;;;;;;0.00;0.00;;;;;;;7.11;55.96;101731.28;15928327;27;20599;-51
2024/02/28 14:47:26;;;;;;;0.00;0.00;;;;;;;6.65;57.29;101736.13;15950552;27;20049;-50
2024/02/28 14:55:01;;;;;;;0.00;0.00;;;;;;;6.57;57.88;101741.41;15948454;27;20046;-54
2024/02/28 15:02:37;;;;;;;0.30;0.30;;;;;;;6.37;58.30;101740.81;15988270;27;20035;-49
2024/02/28 15:10:14;;;;;;;0.65;0.60;;;;;;;6.61;57.05;101735.59;15987609;27;20039;-50
2024/02/28 15:17:52;;;;;;;0.10;0.10;;;;;;;6.59;57.29;101748.28;15993191;27;20038;-52
2024/02/28 15:25:31;;;;;;;0.00;0.00;;;;;;;6.38;57.65;101732.66;15990779;27;20069;-50
2024/02/28 15:33:07;;;;;;;0.98;0.25;;;;;;;6.73;57.48;101746.84;15989780;27;20130;-53
2024/02/28 15:40:41;;;;;;;0.00;0.00;;;;;;;6.70;56.99;101739.16;15988991;27;20114;-50
2024/02/28 15:48:18;;;;;;;0.10;0.10;;;;;;;6.41;58.25;101728.84;15957316;27;20701;-51
2024/02/28 15:55:52;;;;;;;0.00;0.00;;;;;;;6.48;58.17;101737.91;15966059;27;20677;-49
2024/02/28 16:03:28;;;;;;;8.48;0.57;;;;;;;6.35;58.43;101729.50;16006706;27;20038;-49
2024/02/28 16:11:04;;;;;;;0.00;0.00;;;;;;;6.32;58.64;101735.13;15967999;27;20038;-49
2024/02/28 16:18:42;;;;;;;0.10;0.10;;;;;;;6.08;59.37;101733.97;15978717;27;20046;-51
2024/02/28 16:26:16;;;;;;;0.13;0.13;;;;;;;6.03;59.84;101735.44;15997073;27;20049;-53
2024/02/28 16:33:51;;;;;;;;;;;;;;;6.26;59.76;101739.25;15932915;27;20155;-55
2024/02/28 16:41:25;;;;;;;0.65;0.65;;;;;;;5.84;60.62;101753.25;15932373;27;20379;-49
2024/02/28 16:49:00;;;;;;;0.13;0.13;;;;;;;5.61;61.80;101750.25;15950878;27;20085;-53
2024/02/28 16:56:35;;;;;;;0.52;0.52;;;;;;;5.37;62.06;101755.34;15975683;27;20625;-51
2024/02/28 17:04:10;;;;;;;0.00;0.00;;;;;;;5.00;63.52;101761.59;15953119;27;20054;-50
2024/02/28 17:11:43;;;;;;;0.52;0.40;;;;;;;4.97;63.76;101772.53;15941205;27;20424;-48
2024/02/28 17:19:18;;;;;;;;;;;;;;;4.93;63.22;101763.16;15975464;27;20057;-52
2024/02/28 17:26:53;;;;;;;0.68;0.40;;;;;;;4.61;64.74;101769.72;15992919;27;20030;-50
2024/02/28 17:34:28;;;;;;;0.10;0.10;;;;;;;4.55;64.63;101775.66;15992787;27;20047;-48
2024/02/28 17:42:02;;;;;;;0.00;0.00;;;;;;;4.55;65.02;101778.31;15992181;27;20050;-51
2024/02/28 17:49:41;;;;;;;2.03;0.63;;;;;;;4.34;64.96;101786.50;15967988;27;20043;-48
2024/02/28 17:57:16;;;;;;;0.55;0.47;;;;;;;4.14;66.16;101784.84;15975485;27;20498;-49
2024/02/28 18:04:51;;;;;;;3.10;0.43;;;;;;;3.91;67.27;101792.28;15993884;27;20064;-48
2024/02/28 18:12:24;;;;;;;0.00;0.00;;;;;;;3.92;67.22;101782.53;15957615;27;20051;-48
2024/02/28 18:20:00;;;;;;;0.85;0.50;;;;;;;3.74;68.36;101788.53;15864392;28;20051;-48
2024/02/28 18:27:35;;;;;;;1.23;1.13;;;;;;;3.74;67.09;101788.53;15853182;28;20488;-49
2024/02/28 18:35:10;;;;;;;0.40;0.40;;;;;;;3.66;67.73;101791.03;15802949;28;20036;-48
2024/02/28 18:42:45;;;;;;;0.63;0.63;;;;;;;3.52;67.97;101789.63;15812173;28;20119;-48
2024/02/28 18:50:23;;;;;;;0.50;0.50;;;;;;;3.57;68.38;101790.03;15826482;28;20048;-51
2024/02/28 18:57:58;;;;;;;0.22;0.22;;;;;;;3.39;69.21;101785.56;15846405;28;20495;-53
2024/02/28 19:05:33;;;;;;;0.10;0.10;;;;;;;3.04;70.56;101787.72;15875272;28;20127;-51
2024/02/28 19:13:08;;;;;;;0.65;0.65;;;;;;;2.35;72.47;101798.16;15922698;27;20049;-53
2024/02/28 19:20:44;;;;;;;0.15;0.15;;;;;;;3.13;69.88;101788.72;16022308;27;20114;-53
2024/02/28 19:28:17;;;;;;;1.83;1.50;;;;;;;2.70;72.16;101783.69;16014656;27;20047;-49
2024/02/28 19:35:53;;;;;;;1.55;0.93;;;;;;;2.65;72.05;101786.72;15987230;27;20130;-49
2024/02/28 19:43:27;;;;;;;0.70;0.70;;;;;;;2.87;71.58;101798.13;15949645;27;20107;-48
2024/02/28 19:51:03;;;;;;;0.38;0.38;;;;;;;2.55;70.46;101770.78;15988121;27;20058;-52
2024/02/28 19:58:37;;;;;;;0.00;0.00;;;;;;;2.54;71.30;101785.00;15956463;27;20051;-49
2024/02/28 20:06:15;;;;;;;0.43;0.43;;;;;;;1.81;75.57;101799.19;15976846;27;20068;-51
2024/02/28 20:13:52;;;;;;;0.70;0.70;;;;;;;2.46;72.86;101792.78;15982709;27;20091;-50
2024/02/28 20:21:28;;;;;;;2.03;1.40;;;;;;;2.65;71.49;101797.34;15957260;27;20043;-51
2024/02/28 20:29:03;;;;;;;1.20;1.13;;;;;;;2.17;73.77;101791.78;15976993;27;20043;-53
2024/02/28 20:36:39;;;;;;;0.50;0.50;;;;;;;2.35;72.82;101794.69;15985351;27;20055;-53
2024/02/28 20:44:14;;;;;;;4.22;2.22;;;;;;;2.37;72.16;101792.72;15991318;27;20051;-48
2024/02/28 20:51:50;;;;;;;0.25;0.25;;;;;;;2.02;71.40;101793.91;15982881;27;20038;-49
2024/02/28 20:59:26;;;;;;;2.65;1.38;;;;;;;2.19;71.80;101788.06;16003665;27;20112;-52
2024/02/28 21:07:01;;;;;;;0.00;0.00;;;;;;;1.94;73.58;101783.97;15983432;27;20039;-50
2024/02/28 21:14:37;;;;;;;0.88;0.88;;;;;;;2.09;72.85;101778.34;15927533;27;20054;-49
2024/02/28 21:22:12;;;;;;;0.45;0.40;;;;;;;1.92;73.34;101772.66;15938463;27;20487;-51
2024/02/28 21:29:46;;;;;;;0.00;0.00;;;;;;;1.84;73.29;101774.28;15996849;27;20046;-49
2024/02/28 21:37:21;;;;;;;0.05;0.05;;;;;;;1.45;76.63;101763.38;15996963;27;20507;-51
2024/02/28 21:44:55;;;;;;;0.00;0.00;;;;;;;1.15;77.75;101761.41;15943657;27;20137;-50
2024/02/28 21:52:30;;;;;;;0.38;0.30;;;;;;;1.46;75.40;101760.59;15969284;27;20433;-52
2024/02/28 22:00:04;;;;;;;0.10;0.10;;;;;;;1.67;73.92;101771.22;15915721;27;20134;-53
2024/02/28 22:07:43;;;;;;;0.40;0.40;;;;;;;1.36;75.82;101758.84;15935453;27;20034;-49
2024/02/28 22:15:18;;;;;;;0.57;0.57;;;;;;;1.89;73.20;101754.38;15952322;27;20145;-52
2024/02/28 22:22:54;;;;;;;0.00;0.00;;;;;;;1.31;75.08;101751.28;15996119;27;20050;-51
2024/02/28 22:30:29;;;;;;;0.85;0.68;;;;;;;1.49;75.35;101749.78;15996864;27;20060;-52
2024/02/28 22:38:05;;;;;;;0.35;0.35;;;;;;;1.34;75.57;101745.72;15994853;27;20043;-50
2024/02/28 22:45:39;;;;;;;0.17;0.17;;;;;;;1.19;76.96;101750.47;15980604;27;20096;-52
2024/02/28 22:53:19;;;;;;;0.28;0.28;;;;;;;1.43;75.20;101738.84;15947617;27;20130;-53
2024/02/28 23:00:53;;;;;;;0.43;0.43;;;;;;;1.09;74.78;101740.75;15934352;27;20516;-50
2024/02/28 23:08:28;;;;;;;0.82;0.80;;;;;;;1.01;76.28;101744.84;15991450;27;20142;-52
2024/02/28 23:16:03;;;;;;;0.10;0.10;;;;;;;0.94;74.38;101746.31;15974375;27;20035;-52
2024/02/28 23:23:41;;;;;;;0.10;0.10;;;;;;;0.76;77.54;101743.34;15973973;27;20054;-50
2024/02/28 23:31:17;;;;;;;0.20;0.20;;;;;;;0.32;79.06;101722.22;15958063;27;20054;-51
2024/02/28 23:38:52;;;;;;;0.10;0.10;;;;;;;0.08;79.71;101733.69;15926759;27;20432;-50
2024/02/28 23:46:26;;;;;;;0.00;0.00;;;;;;;0.70;77.99;101732.41;15944301;27;20456;-52
2024/02/28 23:54:01;;;;;;;0.45;0.45;;;;;;;0.20;80.20;101730.13;15943627;27;20388;-51
